createdAt,value
2022-10-26T00:01:37.055Z,100.00
2022-10-26T00:04:05.912Z,100.00
2022-10-26T00:06:36.183Z,100.00
2022-10-26T00:09:04.861Z,100.00
2022-10-26T00:11:33.465Z,100.00
2022-10-26T00:14:02.076Z,100.00
2022-10-26T00:16:31.348Z,100.00
2022-10-26T00:18:59.947Z,100.00
2022-10-26T00:21:28.526Z,100.00
2022-10-26T00:23:57.178Z,100.00
2022-10-26T00:26:25.863Z,100.00
2022-10-26T00:28:55.779Z,100.00
2022-10-26T00:31:25.328Z,100.00
2022-10-26T00:33:55.614Z,100.00
2022-10-26T00:36:25.289Z,100.00
2022-10-26T00:38:56.174Z,100.00
2022-10-26T00:41:28.136Z,100.00
2022-10-26T00:43:58.652Z,100.00
2022-10-26T00:46:32.937Z,100.00
2022-10-26T00:49:07.393Z,100.00
2022-10-26T00:51:39.006Z,100.00
2022-10-26T00:54:10.621Z,100.00
2022-10-26T00:56:39.465Z,100.00
2022-10-26T00:59:11.367Z,100.00
2022-10-26T01:01:42.930Z,100.00
2022-10-26T01:04:12.188Z,100.00
2022-10-26T01:06:43.212Z,100.00
2022-10-26T01:09:13.685Z,100.00
2022-10-26T01:11:42.249Z,100.00
2022-10-26T01:14:13.532Z,100.00
2022-10-26T01:17:05.070Z,100.00
2022-10-26T01:20:11.321Z,100.00
2022-10-26T01:22:58.275Z,100.00
2022-10-26T01:25:53.811Z,100.00
2022-10-26T01:28:28.089Z,100.00
2022-10-26T01:30:59.715Z,100.00
2022-10-26T01:33:47.058Z,100.00
2022-10-26T01:36:27.765Z,100.00
2022-10-26T01:39:05.619Z,100.00
2022-10-26T01:41:49.166Z,100.00
2022-10-26T01:44:23.609Z,100.00
2022-10-26T01:46:55.714Z,100.00
2022-10-26T01:49:27.399Z,100.00
2022-10-26T01:51:56.093Z,100.00
2022-10-26T01:54:24.838Z,100.00
2022-10-26T01:56:56.476Z,100.00
2022-10-26T01:59:49.473Z,100.00
2022-10-26T02:02:32.165Z,100.00
2022-10-26T02:05:38.181Z,100.00
2022-10-26T02:08:15.517Z,100.00
2022-10-26T02:11:00.171Z,100.00
2022-10-26T02:13:44.028Z,100.00
2022-10-26T02:16:21.414Z,100.00
2022-10-26T02:18:53.063Z,100.00
2022-10-26T02:21:27.267Z,100.00
2022-10-26T02:23:59.284Z,100.00
2022-10-26T02:26:30.844Z,100.00
2022-10-26T02:29:02.523Z,100.00
2022-10-26T02:31:33.812Z,100.00
2022-10-26T02:34:05.438Z,100.00
2022-10-26T02:36:37.189Z,100.00
2022-10-26T02:39:10.849Z,100.00
2022-10-26T02:41:43.705Z,100.00
2022-10-26T02:44:21.335Z,100.00
2022-10-26T02:46:53.312Z,100.00
2022-10-26T02:49:22.667Z,100.00
2022-10-26T02:52:15.643Z,100.00
2022-10-26T02:54:55.930Z,100.00
2022-10-26T02:57:33.529Z,100.00
2022-10-26T03:00:03.952Z,100.00
2022-10-26T03:02:32.481Z,100.00
2022-10-26T03:05:10.066Z,100.00
2022-10-26T03:07:38.803Z,100.00
2022-10-26T03:10:08.223Z,100.00
2022-10-26T03:12:36.824Z,100.00
2022-10-26T03:15:06.331Z,100.00
2022-10-26T03:17:35.023Z,100.00
2022-10-26T03:20:05.422Z,100.00
2022-10-26T03:22:35.546Z,100.00
2022-10-26T03:25:04.518Z,100.00
2022-10-26T03:27:33.400Z,100.00
2022-10-26T03:30:01.996Z,100.00
2022-10-26T03:32:30.527Z,100.00
2022-10-26T03:34:59.066Z,100.00
2022-10-26T03:37:28.276Z,100.00
2022-10-26T03:39:56.884Z,100.00
2022-10-26T03:42:25.539Z,100.00
2022-10-26T03:44:55.670Z,100.00
2022-10-26T03:47:24.279Z,100.00
2022-10-26T03:49:52.893Z,100.00
2022-10-26T03:52:21.555Z,100.00
2022-10-26T03:54:51.675Z,100.00
2022-10-26T03:57:20.514Z,100.00
2022-10-26T03:59:49.194Z,100.00
2022-10-26T04:02:17.854Z,100.00
2022-10-26T04:04:46.559Z,100.00
2022-10-26T04:07:15.221Z,100.00
2022-10-26T04:09:46.613Z,100.00
2022-10-26T04:12:15.169Z,100.00
2022-10-26T04:14:43.811Z,100.00
2022-10-26T04:17:15.372Z,100.00
2022-10-26T04:19:44.055Z,100.00
2022-10-26T04:22:12.691Z,100.00
2022-10-26T04:24:41.346Z,100.00
2022-10-26T04:27:12.032Z,100.00
2022-10-26T04:29:40.639Z,100.00
2022-10-26T04:32:10.727Z,100.00
2022-10-26T04:34:39.391Z,100.00
2022-10-26T04:37:07.987Z,100.00
2022-10-26T04:39:36.593Z,100.00
2022-10-26T04:42:05.332Z,100.00
2022-10-26T04:44:34.494Z,100.00
2022-10-26T04:47:03.169Z,100.00
2022-10-26T04:49:31.871Z,100.00
2022-10-26T04:52:00.526Z,100.00
2022-10-26T04:54:29.134Z,100.00
2022-10-26T04:56:57.705Z,100.00
2022-10-26T04:59:26.299Z,100.00
2022-10-26T05:01:57.945Z,100.00
2022-10-26T05:04:26.690Z,100.00
2022-10-26T05:06:55.349Z,100.00
2022-10-26T05:09:24.025Z,100.00
2022-10-26T05:11:53.159Z,100.00
2022-10-26T05:14:29.217Z,100.00
2022-10-26T05:16:57.976Z,100.00
2022-10-26T05:19:26.656Z,100.00
2022-10-26T05:21:55.452Z,100.00
2022-10-26T05:24:24.056Z,100.00
2022-10-26T05:26:52.727Z,100.00
2022-10-26T05:29:22.798Z,100.00
2022-10-26T05:31:52.898Z,100.00
2022-10-26T05:34:42.336Z,100.00
2022-10-26T05:37:40.419Z,100.00
2022-10-26T05:40:29.146Z,100.00
2022-10-26T05:43:33.632Z,100.00
2022-10-26T05:49:13.927Z,100.00
2022-10-26T05:49:41.741Z,100.00
2022-10-26T05:51:45.282Z,100.00
2022-10-26T06:04:44.293Z,100.00
2022-10-26T06:07:15.087Z,100.00
2022-10-26T06:09:48.998Z,100.00
2022-10-26T06:12:19.693Z,100.00
2022-10-26T06:14:50.356Z,100.00
2022-10-26T06:17:38.411Z,100.00
2022-10-26T06:20:22.224Z,100.00
2022-10-26T06:23:17.484Z,100.00
2022-10-26T06:26:07.223Z,100.00
2022-10-26T06:28:55.428Z,100.00
2022-10-26T06:31:24.157Z,100.00
2022-10-26T06:33:55.762Z,100.00
2022-10-26T06:36:28.421Z,100.00
2022-10-26T06:39:04.529Z,100.00
2022-10-26T06:41:35.610Z,100.00
2022-10-26T06:44:05.514Z,100.00
2022-10-26T06:46:46.172Z,100.00
2022-10-26T06:49:32.882Z,100.00
2022-10-26T06:52:10.258Z,100.00
2022-10-26T06:54:55.725Z,100.00
2022-10-26T06:57:26.892Z,100.00
2022-10-26T06:59:58.460Z,100.00
2022-10-26T07:02:27.277Z,100.00
2022-10-26T07:04:57.622Z,100.00
2022-10-26T07:07:30.679Z,100.00
2022-10-26T07:09:59.317Z,100.00
2022-10-26T07:12:32.130Z,100.00
2022-10-26T07:15:01.241Z,100.00
2022-10-26T07:17:30.646Z,100.00
2022-10-26T07:20:02.315Z,100.00
2022-10-26T07:22:30.848Z,100.00
2022-10-26T07:25:03.057Z,100.00
2022-10-26T07:27:31.344Z,100.00
2022-10-26T07:30:07.718Z,100.00
2022-10-26T07:32:59.821Z,100.00
2022-10-26T07:38:34.239Z,100.00
2022-10-26T07:41:04.155Z,100.00
2022-10-26T07:43:38.222Z,100.00
2022-10-26T07:46:14.617Z,100.00
2022-10-26T07:48:46.570Z,100.00
2022-10-26T07:51:18.569Z,100.00
2022-10-26T07:54:01.440Z,100.00
2022-10-26T07:56:31.928Z,100.00
2022-10-26T07:59:06.254Z,100.00
2022-10-26T08:01:40.129Z,100.00
2022-10-26T08:04:10.836Z,100.00
2022-10-26T08:06:41.041Z,100.00
2022-10-26T08:09:15.510Z,100.00
2022-10-26T08:11:51.222Z,100.00
2022-10-26T08:14:20.050Z,100.00
2022-10-26T08:16:50.463Z,100.00
2022-10-26T08:19:24.705Z,100.00
2022-10-26T08:22:02.323Z,100.00
2022-10-26T08:24:31.370Z,100.00
2022-10-26T08:26:59.911Z,100.00
2022-10-26T08:29:34.426Z,100.00
2022-10-26T08:32:02.977Z,100.00
2022-10-26T08:34:31.631Z,100.00
2022-10-26T08:37:00.222Z,100.00
2022-10-26T08:39:32.102Z,100.00
2022-10-26T08:42:20.158Z,100.00
2022-10-26T08:44:51.743Z,100.00
2022-10-26T08:47:26.188Z,100.00
2022-10-26T08:50:13.220Z,100.00
2022-10-26T08:53:02.878Z,100.00
2022-10-26T08:55:34.606Z,100.00
2022-10-26T08:58:06.596Z,100.00
2022-10-26T09:00:35.293Z,100.00
2022-10-26T09:03:07.107Z,100.00
2022-10-26T09:05:38.853Z,100.00
2022-10-26T09:08:32.070Z,100.00
2022-10-26T09:11:18.735Z,98.16
2022-10-26T09:14:13.028Z,96.02
2022-10-26T09:16:59.950Z,95.12
2022-10-26T09:19:46.442Z,94.76
2022-10-26T09:22:26.973Z,97.20
2022-10-26T09:24:58.174Z,94.70
2022-10-26T09:27:33.675Z,92.72
2022-10-26T09:30:07.922Z,87.38
2022-10-26T09:32:54.858Z,84.36
2022-10-26T09:35:26.573Z,82.95
2022-10-26T09:37:58.135Z,81.38
2022-10-26T09:40:38.630Z,79.23
2022-10-26T09:43:26.647Z,73.90
2022-10-26T09:45:55.732Z,70.10
2022-10-26T09:48:42.266Z,69.81
2022-10-26T09:51:14.195Z,67.58
2022-10-26T09:53:42.888Z,66.78
2022-10-26T09:56:16.088Z,63.18
2022-10-26T09:58:47.963Z,60.31
2022-10-26T10:01:36.876Z,61.51
2022-10-26T10:04:13.552Z,60.81
2022-10-26T10:06:43.278Z,61.84
2022-10-26T10:09:21.252Z,61.12
2022-10-26T10:12:02.661Z,59.90
2022-10-26T10:14:38.998Z,59.09
2022-10-26T10:17:10.974Z,57.81
2022-10-26T10:19:40.480Z,57.72
2022-10-26T10:22:24.908Z,56.58
2022-10-26T10:24:58.912Z,56.35
2022-10-26T10:27:29.408Z,55.70
2022-10-26T10:30:03.073Z,55.85
2022-10-26T10:32:35.550Z,54.29
2022-10-26T10:35:02.877Z,53.54
2022-10-26T10:37:42.730Z,53.50
2022-10-26T10:40:18.824Z,53.52
2022-10-26T10:42:49.868Z,53.11
2022-10-26T10:45:24.382Z,52.60
2022-10-26T10:48:07.806Z,51.55
2022-10-26T10:50:37.880Z,51.50
2022-10-26T10:53:19.481Z,51.50
2022-10-26T10:56:14.493Z,51.34
2022-10-26T10:59:03.966Z,52.06
2022-10-26T11:01:44.668Z,50.98
2022-10-26T11:04:26.282Z,51.87
2022-10-26T11:06:57.832Z,51.80
2022-10-26T11:09:29.252Z,51.83
2022-10-26T11:12:12.047Z,51.48
2022-10-26T11:14:49.777Z,51.04
2022-10-26T11:17:25.934Z,52.01
2022-10-26T11:20:31.925Z,50.61
2022-10-26T11:23:24.832Z,50.32
2022-10-26T11:29:05.665Z,49.94
2022-10-26T11:31:47.975Z,48.26
2022-10-26T11:34:34.422Z,47.99
2022-10-26T11:37:11.817Z,48.07
2022-10-26T11:39:50.380Z,48.80
2022-10-26T11:42:49.276Z,47.67
2022-10-26T11:45:42.487Z,46.97
2022-10-26T11:48:26.169Z,45.65
2022-10-26T11:51:02.505Z,44.99
2022-10-26T11:53:34.094Z,45.02
2022-10-26T11:56:11.542Z,44.43
2022-10-26T11:58:39.801Z,44.24
2022-10-26T12:01:19.448Z,43.91
2022-10-26T12:03:49.913Z,42.68
2022-10-26T12:06:21.587Z,42.36
2022-10-26T12:08:53.204Z,42.36
2022-10-26T12:11:24.858Z,41.32
2022-10-26T12:14:08.296Z,41.00
2022-10-26T12:16:51.802Z,40.73
2022-10-26T12:21:55.961Z,39.81
2022-10-26T12:24:27.672Z,40.47
2022-10-26T12:26:58.787Z,40.06
2022-10-26T12:29:41.235Z,39.88
2022-10-26T12:32:30.855Z,39.12
2022-10-26T12:35:03.170Z,38.55
2022-10-26T12:37:37.701Z,38.46
2022-10-26T12:40:44.702Z,38.09
2022-10-26T12:43:19.148Z,38.75
2022-10-26T12:45:52.679Z,39.16
2022-10-26T12:48:44.775Z,39.34
2022-10-26T12:51:25.283Z,39.70
2022-10-26T12:54:05.712Z,38.61
2022-10-26T12:56:37.290Z,38.47
2022-10-26T12:59:25.266Z,38.73
2022-10-26T13:02:15.112Z,39.39
2022-10-26T13:04:46.697Z,38.20
2022-10-26T13:07:30.205Z,37.84
2022-10-26T13:10:16.669Z,36.57
2022-10-26T13:13:00.380Z,36.87
2022-10-26T13:15:40.415Z,37.07
2022-10-26T13:18:22.091Z,36.73
2022-10-26T13:20:57.179Z,36.58
2022-10-26T13:23:46.785Z,36.90
2022-10-26T13:26:23.761Z,35.71
2022-10-26T13:29:02.455Z,36.22
2022-10-26T13:31:51.117Z,35.74
2022-10-26T13:34:30.432Z,35.47
2022-10-26T13:37:18.814Z,34.39
2022-10-26T13:39:49.776Z,34.43
2022-10-26T13:42:21.459Z,34.50
2022-10-26T13:44:53.125Z,34.03
2022-10-26T13:47:30.451Z,33.67
2022-10-26T13:50:03.303Z,33.99
2022-10-26T13:52:38.592Z,34.16
2022-10-26T13:55:12.841Z,33.82
2022-10-26T13:57:47.071Z,33.52
2022-10-26T14:00:23.774Z,33.48
2022-10-26T14:02:56.763Z,33.69
2022-10-26T14:05:25.842Z,33.90
2022-10-26T14:07:57.673Z,34.32
2022-10-26T14:10:41.450Z,33.64
2022-10-26T14:13:12.581Z,33.45
2022-10-26T14:15:49.201Z,34.06
2022-10-26T14:18:22.626Z,34.36
2022-10-26T14:21:02.983Z,34.35
2022-10-26T14:23:37.015Z,34.72
2022-10-26T14:26:06.702Z,35.00
2022-10-26T14:28:38.230Z,35.37
2022-10-26T14:31:16.702Z,35.83
2022-10-26T14:33:44.441Z,36.14
2022-10-26T14:36:13.568Z,36.41
2022-10-26T14:38:51.312Z,36.39
2022-10-26T14:41:20.935Z,36.43
2022-10-26T14:43:50.039Z,36.67
2022-10-26T14:46:20.812Z,36.90
2022-10-26T14:48:55.329Z,36.72
2022-10-26T14:51:29.655Z,36.74
2022-10-26T14:54:01.154Z,37.17
2022-10-26T14:56:41.663Z,36.45
2022-10-26T14:59:28.329Z,37.18
2022-10-26T15:02:20.012Z,37.38
2022-10-26T15:05:06.911Z,37.40
2022-10-26T15:07:40.945Z,37.94
2022-10-26T15:10:29.055Z,38.31
2022-10-26T15:12:57.722Z,38.30
2022-10-26T15:15:27.854Z,37.84
2022-10-26T15:18:00.190Z,37.28
2022-10-26T15:20:33.484Z,37.69
2022-10-26T15:23:09.057Z,38.69
2022-10-26T15:25:42.707Z,38.57
2022-10-26T15:28:26.363Z,39.14
2022-10-26T15:31:14.721Z,38.87
2022-10-26T15:33:54.598Z,39.25
2022-10-26T15:36:26.325Z,41.21
2022-10-26T15:38:55.670Z,42.43
2022-10-26T15:41:41.557Z,44.01
2022-10-26T15:44:13.855Z,45.08
2022-10-26T15:46:42.813Z,46.56
2022-10-26T15:49:17.241Z,47.79
2022-10-26T15:51:54.336Z,48.12
2022-10-26T15:54:28.203Z,49.01
2022-10-26T15:57:02.293Z,51.21
2022-10-26T15:59:36.081Z,50.49
2022-10-26T16:02:17.790Z,52.89
2022-10-26T16:04:46.928Z,51.25
2022-10-26T16:07:20.387Z,52.56
2022-10-26T16:09:50.846Z,51.72
2022-10-26T16:12:21.046Z,53.00
2022-10-26T16:15:06.062Z,51.73
2022-10-26T16:17:19.958Z,49.53
2022-10-26T16:19:50.871Z,50.49
2022-10-26T16:22:22.414Z,50.86
2022-10-26T16:24:51.127Z,47.25
2022-10-26T16:27:21.291Z,48.75
2022-10-26T16:29:51.664Z,48.81
2022-10-26T16:32:24.404Z,47.29
2022-10-26T16:35:08.816Z,46.70
2022-10-26T16:37:42.506Z,47.24
2022-10-26T16:40:11.764Z,48.35
2022-10-26T16:42:50.567Z,50.62
2022-10-26T16:45:22.507Z,51.19
2022-10-26T16:47:55.683Z,53.38
2022-10-26T16:50:24.350Z,54.92
2022-10-26T16:52:54.818Z,53.90
2022-10-26T16:55:30.558Z,54.06
2022-10-26T16:58:15.912Z,56.24
2022-10-26T17:00:47.258Z,58.21
2022-10-26T17:03:17.596Z,59.47
2022-10-26T17:05:46.246Z,62.44
2022-10-26T17:08:16.381Z,64.11
2022-10-26T17:10:45.155Z,62.08
2022-10-26T17:13:13.936Z,59.68
2022-10-26T17:15:42.690Z,62.97
2022-10-26T17:18:17.426Z,70.24
2022-10-26T17:20:55.557Z,71.65
2022-10-26T17:23:24.351Z,68.84
2022-10-26T17:25:55.929Z,71.26
2022-10-26T17:28:24.648Z,72.99
2022-10-26T17:31:09.123Z,74.06
2022-10-26T17:33:40.186Z,77.04
2022-10-26T17:36:10.391Z,73.97
2022-10-26T17:38:41.267Z,76.05
2022-10-26T17:41:13.185Z,84.61
2022-10-26T17:43:43.408Z,83.17
2022-10-26T17:46:14.639Z,83.82
2022-10-26T17:48:45.150Z,82.77
2022-10-26T17:51:18.991Z,88.05
2022-10-26T17:53:51.464Z,87.45
2022-10-26T17:56:31.513Z,86.41
2022-10-26T17:59:05.063Z,83.98
2022-10-26T18:01:34.291Z,84.43
2022-10-26T18:04:04.545Z,87.22
2022-10-26T18:06:34.447Z,84.76
2022-10-26T18:09:04.816Z,88.11
2022-10-26T18:11:33.435Z,84.35
2022-10-26T18:14:02.032Z,84.79
2022-10-26T18:16:31.215Z,87.23
2022-10-26T18:19:05.445Z,86.32
2022-10-26T18:21:41.079Z,88.88
2022-10-26T18:24:10.726Z,90.34
2022-10-26T18:26:42.423Z,94.39
2022-10-26T18:29:13.740Z,96.35
2022-10-26T18:31:42.425Z,100.00
2022-10-26T18:34:11.847Z,100.00
2022-10-26T18:36:40.483Z,100.00
2022-10-26T18:39:12.731Z,100.00
2022-10-26T18:41:41.488Z,100.00
2022-10-26T18:44:10.663Z,100.00
2022-10-26T18:46:42.531Z,100.00
2022-10-26T18:54:48.846Z,100.00
2022-10-26T18:57:18.933Z,100.00
2022-10-26T18:59:53.954Z,100.00
2022-10-26T19:02:24.495Z,100.00
2022-10-26T19:05:03.461Z,100.00
2022-10-26T19:07:35.036Z,100.00
2022-10-26T19:10:05.880Z,100.00
2022-10-26T19:12:40.131Z,100.00
2022-10-26T19:15:13.643Z,100.00
2022-10-26T19:17:42.225Z,100.00
2022-10-26T19:20:13.038Z,100.00
2022-10-26T19:22:43.170Z,100.00
2022-10-26T19:25:16.283Z,100.00
2022-10-26T19:27:57.202Z,100.00
2022-10-26T19:30:28.139Z,100.00
2022-10-26T19:33:02.046Z,100.00
2022-10-26T19:38:04.906Z,100.00
2022-10-26T19:40:38.237Z,100.00
2022-10-26T19:43:10.436Z,100.00
2022-10-26T19:45:41.929Z,100.00
2022-10-26T19:48:11.669Z,100.00
2022-10-26T19:50:44.468Z,100.00
2022-10-26T19:53:17.692Z,100.00
2022-10-26T19:55:50.944Z,100.00
2022-10-26T19:58:20.830Z,100.00
2022-10-26T20:01:05.886Z,100.00
2022-10-26T20:03:43.115Z,100.00
2022-10-26T20:06:14.852Z,100.00
2022-10-26T20:08:55.219Z,100.00
2022-10-26T20:11:23.905Z,100.00
2022-10-26T20:13:58.919Z,100.00
2022-10-26T20:16:29.342Z,100.00
2022-10-26T20:19:04.123Z,100.00
2022-10-26T20:21:32.855Z,100.00
2022-10-26T20:24:05.579Z,100.00
2022-10-26T20:26:33.583Z,100.00
2022-10-26T20:29:03.243Z,100.00
2022-10-26T20:31:33.466Z,100.00
2022-10-26T20:34:04.463Z,100.00
2022-10-26T20:36:33.161Z,100.00
2022-10-26T20:39:04.315Z,100.00
2022-10-26T20:41:35.788Z,100.00
2022-10-26T20:44:14.997Z,100.00
2022-10-26T20:46:44.002Z,100.00
2022-10-26T20:49:15.162Z,100.00
2022-10-26T20:52:18.960Z,100.00
2022-10-26T20:54:26.271Z,100.00
2022-10-26T20:57:13.347Z,100.00
2022-10-26T20:59:50.705Z,100.00
2022-10-26T21:02:25.474Z,100.00
2022-10-26T21:04:56.121Z,100.00
2022-10-26T21:07:26.405Z,100.00
2022-10-26T21:09:56.727Z,100.00
2022-10-26T21:12:32.082Z,100.00
2022-10-26T21:15:04.947Z,100.00
2022-10-26T21:17:37.982Z,100.00
2022-10-26T21:20:07.031Z,100.00
2022-10-26T21:22:38.591Z,100.00
2022-10-26T21:25:09.438Z,100.00
2022-10-26T21:27:38.407Z,100.00
2022-10-26T21:30:07.851Z,100.00
2022-10-26T21:32:36.433Z,100.00
2022-10-26T21:35:05.304Z,100.00
2022-10-26T21:37:33.874Z,100.00
2022-10-26T21:40:02.471Z,100.00
2022-10-26T21:42:32.443Z,100.00
2022-10-26T21:45:03.830Z,100.00
2022-10-26T21:47:35.359Z,100.00
2022-10-26T21:50:14.056Z,100.00
2022-10-26T21:52:46.282Z,100.00
2022-10-26T21:55:15.271Z,100.00
2022-10-26T21:57:43.947Z,100.00
2022-10-26T22:00:13.537Z,100.00
2022-10-26T22:02:42.119Z,100.00
2022-10-26T22:05:11.552Z,100.00
2022-10-26T22:07:40.195Z,100.00
2022-10-26T22:10:11.462Z,100.00
2022-10-26T22:12:39.390Z,100.00
2022-10-26T22:15:10.202Z,100.00
2022-10-26T22:17:40.349Z,100.00
2022-10-26T22:20:11.086Z,100.00
2022-10-26T22:22:42.842Z,100.00
2022-10-26T22:25:14.614Z,100.00
2022-10-26T22:27:45.831Z,100.00
2022-10-26T22:30:14.605Z,100.00
2022-10-26T22:32:43.216Z,100.00
2022-10-26T22:35:28.528Z,100.00
2022-10-26T22:37:43.689Z,100.00
2022-10-26T22:40:12.912Z,100.00
2022-10-26T22:42:41.445Z,100.00
2022-10-26T22:45:12.788Z,100.00
2022-10-26T22:47:41.412Z,100.00
2022-10-26T22:50:10.391Z,100.00
2022-10-26T22:52:46.123Z,100.00
2022-10-26T22:55:14.761Z,100.00
2022-10-26T22:57:43.362Z,100.00
2022-10-26T23:00:12.466Z,100.00
2022-10-26T23:02:41.124Z,100.00
2022-10-26T23:05:10.373Z,100.00
2022-10-26T23:07:38.953Z,100.00
2022-10-26T23:10:08.300Z,100.00
2022-10-26T23:12:36.837Z,100.00
2022-10-26T23:15:05.612Z,100.00
2022-10-26T23:17:34.203Z,100.00
2022-10-26T23:20:03.026Z,100.00
2022-10-26T23:22:31.585Z,100.00
2022-10-26T23:25:00.366Z,100.00
2022-10-26T23:27:28.948Z,100.00
2022-10-26T23:29:57.508Z,100.00
2022-10-26T23:32:26.177Z,100.00
2022-10-26T23:34:54.806Z,100.00
2022-10-26T23:37:23.307Z,100.00
2022-10-26T23:39:52.004Z,100.00
2022-10-26T23:42:20.605Z,100.00
2022-10-26T23:44:49.104Z,100.00
2022-10-26T23:47:17.728Z,100.00
2022-10-26T23:49:47.995Z,100.00
2022-10-26T23:52:17.309Z,100.00
2022-10-26T23:54:46.049Z,100.00
2022-10-26T23:57:14.672Z,100.00
2022-10-26T23:59:43.249Z,100.00
